createdAt,value
2019-05-14T00:01:07.963Z,4.97
2019-05-14T00:06:12.963Z,4.87
2019-05-14T00:11:18.271Z,5.55
2019-05-14T00:16:24.335Z,5.10
2019-05-14T00:21:31.602Z,5.28
2019-05-14T00:26:36.699Z,4.33
2019-05-14T00:31:42.730Z,6.00
2019-05-14T00:36:48.293Z,5.10
2019-05-14T00:41:53.402Z,4.93
2019-05-14T00:46:58.590Z,5.05
2019-05-14T00:52:03.769Z,5.37
2019-05-14T00:57:11.583Z,5.83
2019-05-14T01:02:16.022Z,6.28
2019-05-14T01:07:21.350Z,6.05
2019-05-14T01:12:26.552Z,5.20
2019-05-14T01:17:32.028Z,4.70
2019-05-14T01:22:37.729Z,6.25
2019-05-14T01:27:43.459Z,6.95
2019-05-14T01:32:51.051Z,6.35
2019-05-14T01:37:56.266Z,5.90
2019-05-14T01:43:02.754Z,6.78
2019-05-14T01:48:08.474Z,5.67
2019-05-14T01:53:13.951Z,6.60
2019-05-14T01:58:21.876Z,5.37
2019-05-14T02:03:27.085Z,6.30
2019-05-14T02:08:32.506Z,5.07
2019-05-14T02:13:37.977Z,4.93
2019-05-14T02:18:43.913Z,4.58
2019-05-14T02:23:51.249Z,4.87
2019-05-14T02:28:55.762Z,5.22
2019-05-14T02:34:01.112Z,4.83
2019-05-14T02:39:10.155Z,6.22
2019-05-14T02:44:18.642Z,4.95
2019-05-14T02:49:22.282Z,4.90
2019-05-14T02:54:29.759Z,7.20
2019-05-14T02:59:34.169Z,7.10
2019-05-14T03:04:39.987Z,6.75
2019-05-14T03:09:45.321Z,7.73
2019-05-14T03:14:51.001Z,6.07
2019-05-14T03:19:59.867Z,5.78
2019-05-14T03:25:03.756Z,4.17
2019-05-14T03:30:12.270Z,7.13
2019-05-14T03:35:22.550Z,8.45
2019-05-14T03:40:23.263Z,5.87
2019-05-14T03:45:30.097Z,6.50
2019-05-14T03:50:38.740Z,5.35
2019-05-14T03:55:42.618Z,4.92
2019-05-14T04:00:50.978Z,7.53
2019-05-14T04:05:59.330Z,4.58
2019-05-14T04:11:05.052Z,5.37
2019-05-14T04:16:13.331Z,5.22
2019-05-14T04:21:21.043Z,6.03
2019-05-14T04:26:30.199Z,6.90
2019-05-14T04:31:34.554Z,6.43
2019-05-14T04:36:40.426Z,4.80
2019-05-14T04:41:45.992Z,7.10
2019-05-14T04:46:51.431Z,6.97
2019-05-14T04:51:59.591Z,6.40
2019-05-14T04:57:03.357Z,8.10
2019-05-14T05:02:09.754Z,7.35
2019-05-14T05:07:15.282Z,6.12
2019-05-14T05:12:20.461Z,7.60
2019-05-14T05:17:40.013Z,6.03
2019-05-14T05:22:33.056Z,6.12
2019-05-14T05:27:38.928Z,6.33
2019-05-14T05:32:44.508Z,6.75
2019-05-14T05:37:49.633Z,4.97
2019-05-14T05:42:54.734Z,6.92
2019-05-14T05:48:01.794Z,5.73
2019-05-14T05:53:09.017Z,5.73
2019-05-14T05:58:14.451Z,6.87
2019-05-14T06:03:20.932Z,7.22
2019-05-14T06:08:28.266Z,4.37
2019-05-14T06:13:33.697Z,5.43
2019-05-14T06:18:39.639Z,6.93
2019-05-14T06:23:44.737Z,5.78
2019-05-14T06:28:49.992Z,5.30
2019-05-14T06:33:55.974Z,6.42
2019-05-14T06:39:01.116Z,6.30
2019-05-14T06:44:06.261Z,7.72
2019-05-14T06:49:11.735Z,7.83
2019-05-14T06:54:19.631Z,7.67
2019-05-14T06:59:24.187Z,6.47
2019-05-14T07:04:29.376Z,5.67
2019-05-14T07:09:35.119Z,4.28
2019-05-14T07:14:40.515Z,6.08
2019-05-14T07:19:48.757Z,5.07
2019-05-14T07:24:53.140Z,5.35
2019-05-14T07:29:58.494Z,5.10
2019-05-14T07:35:04.118Z,6.33
2019-05-14T07:40:10.436Z,5.87
2019-05-14T07:45:18.496Z,5.27
2019-05-14T07:50:23.708Z,7.70
2019-05-14T07:55:29.275Z,5.23
2019-05-14T08:00:34.523Z,5.70
2019-05-14T08:05:39.944Z,4.50
2019-05-14T08:10:45.106Z,4.75
2019-05-14T08:15:50.605Z,4.87
2019-05-14T08:20:55.884Z,5.47
2019-05-14T08:26:03.801Z,5.45
2019-05-14T08:31:09.477Z,6.33
2019-05-14T08:36:14.904Z,6.13
2019-05-14T08:41:20.201Z,5.33
2019-05-14T08:46:25.306Z,4.40
2019-05-14T08:51:30.597Z,5.93
2019-05-14T08:56:38.738Z,4.75
2019-05-14T09:01:57.422Z,4.60
2019-05-14T09:06:50.335Z,5.72
2019-05-14T09:11:55.826Z,5.10
2019-05-14T09:17:00.835Z,4.97
2019-05-14T09:22:06.247Z,6.80
2019-05-14T09:27:11.561Z,4.28
2019-05-14T09:32:19.096Z,7.03
2019-05-14T09:37:24.029Z,6.15
2019-05-14T09:42:29.160Z,5.40
2019-05-14T09:47:34.519Z,3.73
2019-05-14T09:52:40.110Z,5.43
2019-05-14T09:57:45.177Z,4.80
2019-05-14T10:02:50.715Z,4.40
2019-05-14T10:07:56.266Z,5.83
2019-05-14T10:13:01.899Z,4.60
2019-05-14T10:18:11.883Z,4.57
2019-05-14T10:23:14.242Z,4.25
2019-05-14T10:28:19.540Z,3.53
2019-05-14T10:33:25.286Z,3.33
2019-05-14T10:38:30.646Z,3.83
2019-05-14T10:43:35.932Z,3.92
2019-05-14T10:48:41.294Z,3.83
2019-05-14T10:53:48.841Z,2.92
2019-05-14T10:58:53.352Z,4.67
2019-05-14T11:03:58.922Z,2.62
2019-05-14T11:09:05.900Z,3.52
2019-05-14T11:14:11.051Z,4.85
2019-05-14T11:19:18.655Z,4.20
2019-05-14T11:24:24.130Z,3.00
2019-05-14T11:29:29.811Z,2.70
2019-05-14T11:34:35.159Z,3.65
2019-05-14T11:39:40.917Z,3.90
2019-05-14T11:44:48.643Z,2.47
2019-05-14T11:49:53.314Z,2.85
2019-05-14T11:54:58.613Z,3.30
2019-05-14T12:00:04.907Z,3.25
2019-05-14T12:05:10.430Z,2.67
2019-05-14T12:10:18.429Z,3.27
2019-05-14T12:15:22.895Z,2.58
2019-05-14T12:20:29.643Z,4.12
2019-05-14T12:25:35.391Z,3.13
2019-05-14T12:30:40.958Z,2.62
2019-05-14T12:35:49.235Z,2.22
2019-05-14T12:40:53.615Z,1.80
2019-05-14T12:45:59.607Z,1.82
2019-05-14T12:51:05.043Z,2.83
2019-05-14T12:56:10.639Z,3.47
2019-05-14T13:01:15.742Z,2.30
2019-05-14T13:06:20.951Z,2.40
2019-05-14T13:11:26.094Z,3.75
2019-05-14T13:16:31.540Z,2.00
2019-05-14T13:21:38.913Z,2.83
2019-05-14T13:26:44.087Z,3.27
2019-05-14T13:31:49.800Z,2.83
2019-05-14T13:36:54.935Z,2.87
2019-05-14T13:42:00.414Z,2.17
2019-05-14T13:47:05.607Z,2.53
2019-05-14T13:52:10.765Z,6.15
2019-05-14T13:57:19.159Z,1.37
2019-05-14T14:02:23.394Z,1.35
2019-05-14T14:07:28.849Z,5.58
2019-05-14T14:12:34.162Z,3.42
2019-05-14T14:17:39.895Z,4.37
2019-05-14T14:22:48.886Z,2.33
2019-05-14T14:27:53.205Z,2.33
2019-05-14T14:32:58.863Z,2.60
2019-05-14T14:38:04.535Z,3.57
2019-05-14T14:43:10.196Z,2.60
2019-05-14T14:48:15.459Z,2.05
2019-05-14T14:53:40.868Z,1.50
2019-05-14T14:58:28.627Z,2.17
2019-05-14T15:03:33.819Z,3.65
2019-05-14T15:08:39.685Z,2.00
2019-05-14T15:13:45.186Z,3.67
2019-05-14T15:18:50.452Z,1.72
2019-05-14T15:24:07.231Z,3.55
2019-05-14T15:29:03.111Z,2.27
2019-05-14T15:34:09.005Z,1.63
2019-05-14T15:39:14.879Z,1.30
2019-05-14T15:44:20.239Z,3.37
2019-05-14T15:49:28.208Z,1.80
2019-05-14T15:54:42.274Z,3.30
2019-05-14T15:59:39.724Z,4.17
2019-05-14T16:04:45.192Z,1.95
2019-05-14T16:09:50.479Z,2.70
2019-05-14T16:14:55.856Z,1.90
2019-05-14T16:20:01.639Z,1.80
2019-05-14T16:25:08.923Z,4.17
2019-05-14T16:30:14.571Z,3.08
2019-05-14T16:35:21.239Z,3.10
2019-05-14T16:40:28.799Z,3.12
2019-05-14T16:45:33.637Z,1.90
2019-05-14T16:50:39.010Z,3.30
2019-05-14T16:55:44.386Z,2.17
2019-05-14T17:00:49.491Z,1.90
2019-05-14T17:05:55.298Z,1.73
2019-05-14T17:11:00.946Z,1.82
2019-05-14T17:16:08.526Z,2.45
2019-05-14T17:21:13.865Z,2.00
2019-05-14T17:26:19.519Z,3.70
2019-05-14T17:31:31.096Z,2.20
2019-05-14T17:36:38.810Z,4.55
2019-05-14T17:41:43.347Z,3.73
2019-05-14T17:46:49.073Z,3.67
2019-05-14T17:51:54.440Z,3.20
2019-05-14T17:57:00.348Z,2.40
2019-05-14T18:02:05.574Z,2.17
2019-05-14T18:07:10.994Z,2.05
2019-05-14T18:12:18.538Z,2.58
2019-05-14T18:17:23.226Z,5.40
2019-05-14T18:22:28.972Z,2.80
2019-05-14T18:27:34.069Z,2.70
2019-05-14T18:32:39.492Z,2.85
2019-05-14T18:37:44.624Z,2.00
2019-05-14T18:42:50.317Z,1.80
2019-05-14T18:47:55.676Z,2.00
2019-05-14T18:53:00.843Z,2.10
2019-05-14T18:58:08.423Z,2.00
2019-05-14T19:03:13.481Z,2.63
2019-05-14T19:08:19.250Z,2.40
2019-05-14T19:13:24.802Z,1.92
2019-05-14T19:18:30.221Z,1.52
2019-05-14T19:23:35.405Z,1.90
2019-05-14T19:28:40.846Z,1.70
2019-05-14T19:33:45.872Z,1.85
2019-05-14T19:38:50.996Z,2.00
2019-05-14T19:43:56.588Z,1.97
2019-05-14T19:49:02.030Z,2.17
2019-05-14T19:54:08.304Z,1.93
2019-05-14T19:59:13.655Z,2.00
2019-05-14T20:04:19.166Z,3.27
2019-05-14T20:09:24.515Z,3.50
2019-05-14T20:14:29.604Z,3.95
2019-05-14T20:19:35.300Z,3.80
2019-05-14T20:24:41.786Z,2.00
2019-05-14T20:29:48.713Z,1.60
2019-05-14T20:34:54.250Z,1.53
2019-05-14T20:39:59.322Z,3.23
2019-05-14T20:45:04.980Z,1.65
2019-05-14T20:50:10.378Z,2.30
2019-05-14T20:55:18.448Z,2.22
2019-05-14T21:00:22.961Z,1.87
2019-05-14T21:05:28.809Z,2.23
2019-05-14T21:10:33.995Z,2.45
2019-05-14T21:15:39.396Z,2.37
2019-05-14T21:20:45.133Z,3.50
2019-05-14T21:25:50.893Z,2.52
2019-05-14T21:30:56.393Z,2.22
2019-05-14T21:36:01.508Z,3.12
2019-05-14T21:41:06.794Z,3.58
2019-05-14T21:46:12.665Z,3.47
2019-05-14T21:51:18.307Z,3.00
2019-05-14T21:56:23.449Z,1.90
2019-05-14T22:01:31.073Z,2.72
2019-05-14T22:06:38.350Z,2.37
2019-05-14T22:11:43.241Z,3.27
2019-05-14T22:16:48.814Z,4.95
2019-05-14T22:21:53.989Z,3.55
2019-05-14T22:26:59.331Z,2.80
2019-05-14T22:32:05.162Z,2.87
2019-05-14T22:37:10.398Z,4.90
2019-05-14T22:42:18.739Z,2.90
2019-05-14T22:47:23.009Z,2.95
2019-05-14T22:52:31.121Z,3.20
2019-05-14T22:57:35.641Z,3.22
2019-05-14T23:02:40.867Z,3.30
2019-05-14T23:07:48.433Z,2.80
2019-05-14T23:12:53.033Z,4.23
2019-05-14T23:17:58.863Z,2.83
2019-05-14T23:23:04.736Z,2.90
2019-05-14T23:28:09.735Z,2.90
2019-05-14T23:33:14.920Z,2.77
2019-05-14T23:38:20.449Z,3.92
2019-05-14T23:43:25.798Z,3.50
2019-05-14T23:48:30.931Z,3.42
2019-05-14T23:53:38.825Z,4.47
2019-05-14T23:58:54.912Z,3.10
